Station Historical Data
Daily Summary for January 22, 2017 Units:  English    Metric   Both
« Previous Day
Next Day »
Daily Weekly Monthly Yearly Custom
  High: Low: Average:
Temperature: 47.1 °F 36.8 °F 41.2 °F
Dew Point: 45.3 °F 35.5 °F 39.8 °F
Humidity: 97% 92% 95%
Wind Speed: 14.0mph 0.0mph 3.8mph
Wind Gust: 20.0mph - -
Wind- - ENE
Pressure: 29.74 in 29.65 in -
Precipitation: 0.00 in    
Historical Graphs
 
 
Tabular Data for January 22, 2017
Time Temperature Dew Point Pressure Wind Wind Speed Wind Gust Humidity Rainfall Rate (Hourly)
00:04 46.3 °F 44.9 °F 29.68 in Calm     95% 0.00 in
00:09 46.3 °F 44.9 °F 29.68 in Calm     95% 0.00 in
00:14 46.4 °F 45.0 °F 29.68 in Calm     95% 0.00 in
00:19 46.4 °F 45.0 °F 29.68 in Calm     95% 0.00 in
00:24 46.6 °F 45.2 °F 29.68 in Calm     95% 0.00 in
00:29 46.7 °F 45.3 °F 29.68 in Calm     95% 0.00 in
00:34 46.5 °F 45.1 °F 29.68 in Calm     95% 0.00 in
00:39 46.2 °F 44.6 °F 29.68 in Calm     94% 0.00 in
00:44 45.9 °F 44.5 °F 29.68 in Calm     95% 0.00 in
00:49 45.5 °F 43.9 °F 29.68 in Calm     94% 0.00 in
00:54 45.6 °F 44.3 °F 29.68 in Calm     95% 0.00 in
00:59 45.4 °F 44.1 °F 29.67 in Calm     95% 0.00 in
01:05 45.3 °F 44.0 °F 29.67 in Calm     95% 0.00 in
01:10 44.9 °F 43.3 °F 29.67 in Calm     94% 0.00 in
01:15 44.8 °F 43.5 °F 29.67 in Calm     95% 0.00 in
01:20 44.8 °F 43.5 °F 29.67 in Calm     95% 0.00 in
01:25 44.5 °F 42.9 °F 29.67 in Calm     94% 0.00 in
01:30 44.4 °F 43.1 °F 29.67 in Calm     95% 0.00 in
01:35 44.0 °F 42.4 °F 29.68 in Calm     94% 0.00 in
01:40 43.7 °F 42.4 °F 29.68 in Calm     95% 0.00 in
01:45 43.8 °F 42.5 °F 29.68 in Calm     95% 0.00 in
01:50 43.7 °F 42.4 °F 29.68 in Calm     95% 0.00 in
01:55 43.4 °F 42.1 °F 29.68 in Calm     95% 0.00 in
02:00 43.2 °F 41.9 °F 29.68 in Calm     95% 0.00 in
02:05 43.0 °F 41.7 °F 29.68 in Calm     95% 0.00 in
02:10 42.9 °F 41.6 °F 29.69 in Calm     95% 0.00 in
02:15 42.6 °F 41.3 °F 29.69 in Calm     95% 0.00 in
02:20 42.1 °F 40.8 °F 29.69 in Calm     95% 0.00 in
02:25 41.8 °F 40.5 °F 29.69 in Calm     95% 0.00 in
02:30 41.5 °F 40.2 °F 29.69 in Calm     95% 0.00 in
02:35 41.9 °F 40.6 °F 29.69 in Calm     95% 0.00 in
02:40 42.0 °F 40.7 °F 29.69 in Calm     95% 0.00 in
02:45 41.8 °F 40.5 °F 29.68 in Calm     95% 0.00 in
02:50 41.8 °F 40.5 °F 29.69 in Calm     95% 0.00 in
02:55 41.5 °F 40.2 °F 29.69 in Calm     95% 0.00 in
03:00 41.0 °F 39.7 °F 29.69 in Calm     95% 0.00 in
03:05 40.7 °F 39.4 °F 29.69 in Calm     95% 0.00 in
03:10 40.4 °F 39.1 °F 29.69 in Calm     95% 0.00 in
03:15 40.3 °F 39.0 °F 29.68 in Calm     95% 0.00 in
03:20 40.1 °F 38.8 °F 29.68 in Calm     95% 0.00 in
03:25 40.1 °F 38.8 °F 29.68 in Calm     95% 0.00 in
03:30 40.0 °F 38.7 °F 29.68 in Calm     95% 0.00 in
03:35 39.8 °F 38.5 °F 29.68 in Calm     95% 0.00 in
03:40 39.4 °F 38.1 °F 29.68 in Calm     95% 0.00 in
03:45 39.1 °F 37.8 °F 29.68 in Calm     95% 0.00 in
03:50 39.1 °F 37.8 °F 29.68 in Calm     95% 0.00 in
03:54 39.0 °F 37.7 °F 29.68 in Calm     95% 0.00 in
04:00 38.9 °F 37.6 °F 29.68 in Calm     95% 0.00 in
04:05 38.8 °F 37.5 °F 29.68 in Calm     95% 0.00 in
04:10 38.7 °F 37.4 °F 29.68 in Calm     95% 0.00 in
04:15 38.8 °F 37.8 °F 29.68 in Calm     96% 0.00 in
04:20 38.9 °F 37.9 °F 29.68 in Calm     96% 0.00 in
04:25 39.1 °F 38.1 °F 29.68 in Calm   3.0 mph 96% 0.00 in
04:30 39.0 °F 38.0 °F 29.68 in North 1.0 mph 3.0 mph 96% 0.00 in
04:35 39.1 °F 38.1 °F 29.68 in Calm   2.0 mph 96% 0.00 in
04:40 39.0 °F 38.0 °F 29.68 in Calm   2.0 mph 96% 0.00 in
04:45 38.9 °F 37.9 °F 29.68 in Calm   2.0 mph 96% 0.00 in
04:50 38.8 °F 37.8 °F 29.68 in Calm     96% 0.00 in
04:55 38.6 °F 37.6 °F 29.68 in NNW 1.0 mph 4.0 mph 96% 0.00 in
04:59 38.4 °F 37.1 °F 29.68 in North 1.0 mph 3.0 mph 95% 0.00 in
05:05 38.4 °F 37.1 °F 29.68 in North 2.0 mph 2.0 mph 95% 0.00 in
05:10 38.3 °F 37.3 °F 29.68 in NNW 1.0 mph 4.0 mph 96% 0.00 in
05:15 38.3 °F 37.3 °F 29.68 in NNE 2.0 mph 3.0 mph 96% 0.00 in
05:20 38.1 °F 37.1 °F 29.67 in NNE 1.0 mph 3.0 mph 96% 0.00 in
05:25 38.2 °F 37.2 °F 29.67 in NE 1.0 mph 4.0 mph 96% 0.00 in
05:29 38.1 °F 37.1 °F 29.67 in NE 2.0 mph 4.0 mph 96% 0.00 in
05:35 38.1 °F 37.1 °F 29.67 in NE 1.0 mph 3.0 mph 96% 0.00 in
05:40 38.1 °F 37.1 °F 29.67 in NE 1.0 mph 3.0 mph 96% 0.00 in
05:45 38.0 °F 37.0 °F 29.67 in NE 1.0 mph 4.0 mph 96% 0.00 in
05:50 38.0 °F 37.0 °F 29.67 in NE 2.0 mph 4.0 mph 96% 0.00 in
05:55 38.0 °F 37.0 °F 29.67 in NE 1.0 mph 3.0 mph 96% 0.00 in
06:00 38.0 °F 37.0 °F 29.67 in NE 1.0 mph 3.0 mph 96% 0.00 in
06:04 38.0 °F 37.0 °F 29.67 in Calm     96% 0.00 in
06:09 38.0 °F 37.0 °F 29.67 in Calm     96% 0.00 in
06:15 38.0 °F 37.0 °F 29.67 in Calm     96% 0.00 in
06:20 38.0 °F 37.0 °F 29.68 in Calm     96% 0.00 in
06:25 37.9 °F 36.9 °F 29.67 in NE 2.0 mph 3.0 mph 96% 0.00 in
06:30 37.9 °F 36.9 °F 29.67 in NE 2.0 mph 3.0 mph 96% 0.00 in
06:35 37.8 °F 36.8 °F 29.68 in NE 2.0 mph 3.0 mph 96% 0.00 in
06:40 37.8 °F 36.8 °F 29.68 in NE 1.0 mph 2.0 mph 96% 0.00 in
06:45 37.8 °F 36.8 °F 29.67 in NE 2.0 mph 2.0 mph 96% 0.00 in
06:50 37.7 °F 36.7 °F 29.67 in NE 1.0 mph 2.0 mph 96% 0.00 in
06:55 37.7 °F 36.7 °F 29.67 in NE 1.0 mph 4.0 mph 96% 0.00 in
07:00 37.6 °F 36.6 °F 29.67 in NE 2.0 mph 4.0 mph 96% 0.00 in
07:05 37.5 °F 36.5 °F 29.67 in NE 1.0 mph 5.0 mph 96% 0.00 in
07:09 37.5 °F 36.5 °F 29.67 in NE 2.0 mph 5.0 mph 96% 0.00 in
07:14 37.4 °F 36.4 °F 29.67 in NE 5.0 mph 9.0 mph 96% 0.00 in
07:19 37.2 °F 36.2 °F 29.67 in East 5.0 mph 8.0 mph 96% 0.00 in
07:24 37.1 °F 36.1 °F 29.67 in ENE 3.0 mph 7.0 mph 96% 0.00 in
07:30 37.0 °F 36.0 °F 29.66 in NE 3.0 mph 7.0 mph 96% 0.00 in
07:35 36.9 °F 35.9 °F 29.66 in NE 3.0 mph 8.0 mph 96% 0.00 in
07:39 36.8 °F 35.8 °F 29.66 in NE 3.0 mph 8.0 mph 96% 0.00 in
07:44 36.8 °F 35.8 °F 29.66 in NE 3.0 mph 8.0 mph 96% 0.00 in
07:50 36.9 °F 35.9 °F 29.66 in ENE 3.0 mph 8.0 mph 96% 0.00 in
07:55 37.1 °F 36.1 °F 29.67 in ENE 4.0 mph 8.0 mph 96% 0.00 in
08:00 37.2 °F 36.2 °F 29.67 in NE 2.0 mph 7.0 mph 96% 0.00 in
08:05 37.2 °F 36.2 °F 29.67 in NE 2.0 mph 6.0 mph 96% 0.00 in
08:10 37.3 °F 36.3 °F 29.67 in ENE 3.0 mph 5.0 mph 96% 0.00 in
08:14 37.4 °F 36.4 °F 29.68 in ENE 3.0 mph 5.0 mph 96% 0.00 in
08:19 37.6 °F 36.6 °F 29.67 in ENE 1.0 mph 4.0 mph 96% 0.00 in
08:24 37.9 °F 36.9 °F 29.67 in ENE 2.0 mph 4.0 mph 96% 0.00 in
08:29 38.2 °F 37.2 °F 29.67 in NE 2.0 mph 6.0 mph 96% 0.00 in
08:34 38.4 °F 37.4 °F 29.68 in ENE 1.0 mph 4.0 mph 96% 0.00 in
08:40 38.7 °F 37.7 °F 29.68 in ENE 2.0 mph 4.0 mph 96% 0.00 in
08:44 38.8 °F 37.8 °F 29.68 in ENE 2.0 mph 5.0 mph 96% 0.00 in
08:49 39.0 °F 38.0 °F 29.69 in ENE 2.0 mph 5.0 mph 96% 0.00 in
08:55 39.1 °F 38.1 °F 29.69 in ENE 1.0 mph 5.0 mph 96% 0.00 in
09:00 39.3 °F 38.3 °F 29.70 in ENE 1.0 mph 5.0 mph 96% 0.00 in
09:05 39.5 °F 38.5 °F 29.70 in ENE 1.0 mph 4.0 mph 96% 0.00 in
09:10 39.6 °F 38.6 °F 29.70 in NE 3.0 mph 4.0 mph 96% 0.00 in
09:14 39.7 °F 38.7 °F 29.70 in NE 3.0 mph 5.0 mph 96% 0.00 in
09:19 39.8 °F 38.8 °F 29.70 in ENE 2.0 mph 4.0 mph 96% 0.00 in
09:24 39.9 °F 38.9 °F 29.70 in NE 2.0 mph 5.0 mph 96% 0.00 in
09:29 40.1 °F 39.1 °F 29.71 in NE 3.0 mph 4.0 mph 96% 0.00 in
09:34 40.2 °F 39.2 °F 29.71 in ENE 2.0 mph 4.0 mph 96% 0.00 in
09:39 40.4 °F 39.4 °F 29.71 in ENE 3.0 mph 4.0 mph 96% 0.00 in
09:44 40.6 °F 39.5 °F 29.71 in NE 4.0 mph 4.0 mph 96% 0.00 in
09:49 40.8 °F 39.7 °F 29.71 in NNE 2.0 mph 6.0 mph 96% 0.00 in
09:54 41.0 °F 39.9 °F 29.71 in NE 4.0 mph 7.0 mph 96% 0.00 in
09:59 41.2 °F 40.1 °F 29.71 in ENE 1.0 mph 5.0 mph 96% 0.00 in
10:04 41.5 °F 40.7 °F 29.71 in NNE 2.0 mph 7.0 mph 97% 0.00 in
10:09 41.8 °F 41.0 °F 29.72 in NE 3.0 mph 7.0 mph 97% 0.00 in
10:15 42.2 °F 41.4 °F 29.72 in ENE 3.0 mph 7.0 mph 97% 0.00 in
10:19 42.5 °F 41.4 °F 29.72 in NE 3.0 mph 7.0 mph 96% 0.00 in
10:24 42.9 °F 41.8 °F 29.71 in NE 3.0 mph 7.0 mph 96% 0.00 in
10:29 43.3 °F 42.2 °F 29.71 in NE 3.0 mph 7.0 mph 96% 0.00 in
10:35 43.8 °F 42.7 °F 29.72 in NE 3.0 mph 7.0 mph 96% 0.00 in
10:40 44.2 °F 43.1 °F 29.71 in NE 1.0 mph 5.0 mph 96% 0.00 in
10:45 44.7 °F 43.6 °F 29.72 in ENE 2.0 mph 6.0 mph 96% 0.00 in
10:49 44.8 °F 43.7 °F 29.72 in NE 3.0 mph 6.0 mph 96% 0.00 in
10:54 44.9 °F 43.6 °F 29.71 in NE 4.0 mph 7.0 mph 95% 0.00 in
10:59 45.2 °F 43.9 °F 29.71 in NE 4.0 mph 7.0 mph 95% 0.00 in
11:04 45.6 °F 44.3 °F 29.71 in ENE 4.0 mph 7.0 mph 95% 0.00 in
11:09 45.9 °F 44.5 °F 29.71 in NE 5.0 mph 6.0 mph 95% 0.00 in
11:14 46.1 °F 44.7 °F 29.71 in NE 3.0 mph 7.0 mph 95% 0.00 in
11:19 46.3 °F 44.7 °F 29.71 in NE 3.0 mph 6.0 mph 94% 0.00 in
11:24 46.6 °F 45.0 °F 29.71 in NE 3.0 mph 6.0 mph 94% 0.00 in
11:29 46.7 °F 45.1 °F 29.71 in NE 1.0 mph 5.0 mph 94% 0.00 in
11:34 47.1 °F 45.2 °F 29.70 in NE 1.0 mph 4.0 mph 93% 0.00 in
11:39 47.1 °F 45.2 °F 29.70 in ENE 4.0 mph 7.0 mph 93% 0.00 in
11:45 47.0 °F 45.1 °F 29.70 in ENE 3.0 mph 7.0 mph 93% 0.00 in
11:50 46.7 °F 44.5 °F 29.70 in NNE 3.0 mph 5.0 mph 92% 0.00 in
11:54 46.7 °F 44.5 °F 29.70 in NE 2.0 mph 5.0 mph 92% 0.00 in
11:59 46.6 °F 44.4 °F 29.70 in NNE 2.0 mph 5.0 mph 92% 0.00 in
12:04 46.5 °F 44.3 °F 29.69 in NNE 2.0 mph 4.0 mph 92% 0.00 in
12:09 46.5 °F 44.3 °F 29.69 in NNE 3.0 mph 4.0 mph 92% 0.00 in
12:14 46.3 °F 44.1 °F 29.69 in NE 6.0 mph 7.0 mph 92% 0.00 in
12:19 46.2 °F 44.0 °F 29.69 in NE 3.0 mph 7.0 mph 92% 0.00 in
12:24 46.1 °F 43.9 °F 29.68 in NE 3.0 mph 7.0 mph 92% 0.00 in
12:29 45.9 °F 43.7 °F 29.68 in NNE 3.0 mph 7.0 mph 92% 0.00 in
12:34 45.7 °F 43.8 °F 29.68 in NE 3.0 mph 7.0 mph 93% 0.00 in
12:39 45.4 °F 43.5 °F 29.68 in NNE 1.0 mph 4.0 mph 93% 0.00 in
12:44 45.2 °F 43.3 °F 29.68 in NNE 4.0 mph 6.0 mph 93% 0.00 in
12:49 44.8 °F 42.9 °F 29.68 in NNE 2.0 mph 7.0 mph 93% 0.00 in
12:54 44.8 °F 43.2 °F 29.67 in NE 2.0 mph 10.0 mph 94% 0.00 in
12:59 44.9 °F 43.3 °F 29.67 in NE 3.0 mph 10.0 mph 94% 0.01 in
13:04 45.1 °F 43.5 °F 29.67 in NNE 2.0 mph 4.0 mph 94% 0.01 in
13:09 45.0 °F 43.4 °F 29.67 in NE 2.0 mph 6.0 mph 94% 0.02 in
13:14 45.0 °F 43.4 °F 29.67 in NE 3.0 mph 6.0 mph 94% 0.03 in
13:19 45.0 °F 43.4 °F 29.67 in NE 3.0 mph 8.0 mph 94% 0.03 in
13:24 45.0 °F 43.4 °F 29.67 in ENE 2.0 mph 7.0 mph 94% 0.03 in
13:30 45.0 °F 43.4 °F 29.67 in NE 3.0 mph 7.0 mph 94% 0.03 in
13:34 45.0 °F 43.4 °F 29.67 in NE 3.0 mph 6.0 mph 94% 0.03 in
13:39 45.0 °F 43.4 °F 29.67 in NNE 2.0 mph 8.0 mph 94% 0.03 in
13:44 45.0 °F 43.4 °F 29.67 in NNE 2.0 mph 4.0 mph 94% 0.04 in
13:49 45.0 °F 43.7 °F 29.67 in NNE 2.0 mph 5.0 mph 95% 0.05 in
13:54 45.0 °F 43.7 °F 29.66 in NNE 4.0 mph 4.0 mph 95% 0.06 in
13:59 45.2 °F 43.9 °F 29.66 in NE 2.0 mph 4.0 mph 95% 0.06 in
14:04 45.1 °F 43.8 °F 29.66 in NE 3.0 mph 7.0 mph 95% 0.06 in
14:09 45.1 °F 43.8 °F 29.66 in NE 3.0 mph 7.0 mph 95% 0.06 in
14:14 45.2 °F 43.9 °F 29.66 in NE 3.0 mph 7.0 mph 95% 0.05 in
14:19 45.1 °F 43.8 °F 29.65 in NE 4.0 mph 9.0 mph 95% 0.05 in
14:24 45.0 °F 43.7 °F 29.65 in NE 4.0 mph 9.0 mph 95% 0.06 in
14:30 44.9 °F 43.6 °F 29.65 in NE 5.0 mph 11.0 mph 95% 0.06 in
14:34 44.8 °F 43.5 °F 29.65 in NE 3.0 mph 9.0 mph 95% 0.06 in
14:39 44.7 °F 43.1 °F 29.65 in NE 4.0 mph 11.0 mph 94% 0.07 in
14:44 44.6 °F 43.0 °F 29.65 in ENE 5.0 mph 10.0 mph 94% 0.06 in
14:49 44.6 °F 43.3 °F 29.65 in ESE 7.0 mph 9.0 mph 95% 0.05 in
14:54 44.6 °F 43.3 °F 29.65 in NE 5.0 mph 9.0 mph 95% 0.04 in
14:59 44.6 °F 43.3 °F 29.66 in East 5.0 mph 10.0 mph 95% 0.03 in
15:04 44.7 °F 43.4 °F 29.66 in NE 5.0 mph 10.0 mph 95% 0.03 in
15:09 44.7 °F 43.4 °F 29.66 in NE 5.0 mph 10.0 mph 95% 0.03 in
15:14 44.7 °F 43.4 °F 29.66 in ENE 4.0 mph 9.0 mph 95% 0.03 in
15:19 44.7 °F 43.4 °F 29.66 in ENE 5.0 mph 11.0 mph 95% 0.03 in
15:24 44.7 °F 43.1 °F 29.67 in ENE 6.0 mph 12.0 mph 94% 0.02 in
15:29 44.7 °F 43.4 °F 29.67 in NE 6.0 mph 12.0 mph 95% 0.02 in
15:34 44.7 °F 43.4 °F 29.67 in NNE 3.0 mph 11.0 mph 95% 0.02 in
15:39 44.8 °F 43.5 °F 29.66 in NE 6.0 mph 11.0 mph 95% 0.01 in
15:44 44.8 °F 43.5 °F 29.67 in NE 4.0 mph 12.0 mph 95% 0.01 in
15:49 44.8 °F 43.5 °F 29.67 in NE 5.0 mph 9.0 mph 95% 0.01 in
15:54 44.7 °F 43.4 °F 29.67 in NNE 7.0 mph 11.0 mph 95% 0.01 in
15:59 44.7 °F 43.4 °F 29.67 in East 7.0 mph 11.0 mph 95% 0.01 in
16:04 44.6 °F 43.0 °F 29.67 in NE 7.0 mph 11.0 mph 94% 0.01 in
16:09 44.4 °F 42.8 °F 29.67 in NE 6.0 mph 13.0 mph 94% 0.00 in
16:14 44.3 °F 42.7 °F 29.67 in NE 7.0 mph 15.0 mph 94% 0.00 in
16:19 44.2 °F 42.9 °F 29.67 in NE 6.0 mph 15.0 mph 95% 0.00 in
16:24 43.9 °F 42.3 °F 29.67 in NE 6.0 mph 13.0 mph 94% 0.00 in
16:29 43.6 °F 42.0 °F 29.67 in NE 6.0 mph 13.0 mph 94% 0.00 in
16:34 43.3 °F 41.7 °F 29.67 in NE 7.0 mph 15.0 mph 94% 0.00 in
16:39 43.0 °F 41.4 °F 29.67 in East 9.0 mph 12.0 mph 94% 0.00 in
16:44 42.8 °F 41.2 °F 29.67 in NE 6.0 mph 13.0 mph 94% 0.00 in
16:49 42.7 °F 41.1 °F 29.67 in NE 9.0 mph 13.0 mph 94% 0.00 in
16:54 42.4 °F 40.8 °F 29.67 in ENE 10.0 mph 14.0 mph 94% 0.00 in
16:59 42.2 °F 40.6 °F 29.68 in NNE 13.0 mph 16.0 mph 94% 0.00 in
17:04 42.0 °F 40.4 °F 29.68 in NE 7.0 mph 16.0 mph 94% 0.00 in
17:09 41.9 °F 40.3 °F 29.68 in NE 5.0 mph 15.0 mph 94% 0.00 in
17:14 41.8 °F 40.2 °F 29.68 in NE 8.0 mph 15.0 mph 94% 0.00 in
17:19 41.6 °F 40.0 °F 29.68 in NE 9.0 mph 18.0 mph 94% 0.00 in
17:24 41.5 °F 39.9 °F 29.68 in NE 10.0 mph 18.0 mph 94% 0.00 in
17:29 41.3 °F 39.7 °F 29.68 in NE 9.0 mph 16.0 mph 94% 0.00 in
17:34 41.3 °F 39.7 °F 29.69 in NE 7.0 mph 15.0 mph 94% 0.00 in
17:39 41.2 °F 39.9 °F 29.69 in ENE 8.0 mph 14.0 mph 95% 0.00 in
17:44 41.1 °F 39.8 °F 29.69 in NE 6.0 mph 14.0 mph 95% 0.00 in
17:49 41.0 °F 39.7 °F 29.69 in NE 7.0 mph 15.0 mph 95% 0.00 in
17:54 40.9 °F 39.3 °F 29.69 in NE 9.0 mph 15.0 mph 94% 0.00 in
17:59 40.8 °F 39.2 °F 29.69 in NE 8.0 mph 15.0 mph 94% 0.00 in
18:04 40.7 °F 39.1 °F 29.69 in ENE 10.0 mph 14.0 mph 94% 0.00 in
18:09 40.5 °F 39.2 °F 29.70 in NE 8.0 mph 16.0 mph 95% 0.00 in
18:14 40.4 °F 39.1 °F 29.69 in NE 8.0 mph 17.0 mph 95% 0.00 in
18:19 40.4 °F 38.8 °F 29.69 in NNE 6.0 mph 15.0 mph 94% 0.00 in
18:24 40.3 °F 39.0 °F 29.69 in NE 13.0 mph 15.0 mph 95% 0.00 in
18:29 40.2 °F 38.9 °F 29.69 in NE 8.0 mph 18.0 mph 95% 0.00 in
18:34 40.2 °F 38.9 °F 29.70 in ENE 7.0 mph 17.0 mph 95% 0.00 in
18:39 40.1 °F 38.8 °F 29.70 in East 5.0 mph 14.0 mph 95% 0.00 in
18:44 40.1 °F 38.8 °F 29.70 in NE 7.0 mph 16.0 mph 95% 0.00 in
18:49 40.1 °F 38.8 °F 29.70 in ENE 8.0 mph 18.0 mph 95% 0.00 in
18:54 40.1 °F 38.8 °F 29.71 in NE 8.0 mph 15.0 mph 95% 0.00 in
18:59 40.0 °F 38.7 °F 29.71 in ENE 7.0 mph 15.0 mph 95% 0.00 in
19:04 39.9 °F 38.6 °F 29.71 in NE 7.0 mph 14.0 mph 95% 0.00 in
19:09 39.8 °F 38.5 °F 29.71 in NE 7.0 mph 15.0 mph 95% 0.00 in
19:14 39.7 °F 38.4 °F 29.71 in NE 8.0 mph 16.0 mph 95% 0.00 in
19:19 39.5 °F 38.2 °F 29.71 in ENE 11.0 mph 20.0 mph 95% 0.00 in
19:24 39.4 °F 38.1 °F 29.71 in East 7.0 mph 17.0 mph 95% 0.00 in
19:29 39.4 °F 38.1 °F 29.71 in NE 3.0 mph 15.0 mph 95% 0.00 in
19:34 39.3 °F 38.0 °F 29.71 in ENE 11.0 mph 14.0 mph 95% 0.00 in
19:39 39.3 °F 38.0 °F 29.72 in NE 6.0 mph 11.0 mph 95% 0.00 in
19:44 39.1 °F 37.8 °F 29.72 in NE 7.0 mph 18.0 mph 95% 0.00 in
19:49 39.0 °F 37.7 °F 29.72 in NE 8.0 mph 18.0 mph 95% 0.00 in
19:54 38.9 °F 37.6 °F 29.72 in NE 7.0 mph 14.0 mph 95% 0.00 in
19:59 38.9 °F 37.6 °F 29.72 in NE 11.0 mph 15.0 mph 95% 0.00 in
20:04 38.8 °F 37.5 °F 29.72 in ENE 8.0 mph 15.0 mph 95% 0.00 in
20:09 38.7 °F 37.4 °F 29.72 in ENE 12.0 mph 12.0 mph 95% 0.00 in
20:14 38.6 °F 37.3 °F 29.72 in ENE 8.0 mph 15.0 mph 95% 0.00 in
20:19 38.5 °F 37.2 °F 29.73 in ENE 8.0 mph 15.0 mph 95% 0.00 in
20:24 38.5 °F 37.2 °F 29.73 in East 6.0 mph 10.0 mph 95% 0.00 in
20:29 38.4 °F 37.1 °F 29.72 in ENE 11.0 mph 12.0 mph 95% 0.00 in
20:34 38.4 °F 37.1 °F 29.72 in NE 10.0 mph 13.0 mph 95% 0.00 in
20:39 38.4 °F 37.1 °F 29.72 in ENE 3.0 mph 12.0 mph 95% 0.00 in
20:44 38.4 °F 37.1 °F 29.73 in East 7.0 mph 11.0 mph 95% 0.00 in
20:49 38.4 °F 37.1 °F 29.73 in ENE 6.0 mph 13.0 mph 95% 0.00 in
20:54 38.3 °F 37.0 °F 29.73 in ENE 11.0 mph 11.0 mph 95% 0.00 in
20:59 38.3 °F 37.0 °F 29.73 in ENE 9.0 mph 12.0 mph 95% 0.00 in
21:04 38.2 °F 36.9 °F 29.73 in NE 5.0 mph 13.0 mph 95% 0.00 in
21:09 38.0 °F 36.7 °F 29.73 in NE 4.0 mph 11.0 mph 95% 0.00 in
21:14 38.0 °F 36.7 °F 29.73 in ENE 11.0 mph 13.0 mph 95% 0.00 in
21:19 38.0 °F 36.7 °F 29.72 in NE 8.0 mph 15.0 mph 95% 0.00 in
21:24 37.9 °F 36.6 °F 29.73 in NE 8.0 mph 16.0 mph 95% 0.00 in
21:29 37.8 °F 36.5 °F 29.73 in NE 8.0 mph 16.0 mph 95% 0.00 in
21:34 37.7 °F 36.4 °F 29.73 in NNE 4.0 mph 11.0 mph 95% 0.00 in
21:39 37.8 °F 36.5 °F 29.73 in NE 8.0 mph 15.0 mph 95% 0.00 in
21:44 37.7 °F 36.4 °F 29.73 in East 14.0 mph 15.0 mph 95% 0.00 in
21:49 37.7 °F 36.4 °F 29.73 in ENE 8.0 mph 15.0 mph 95% 0.00 in
21:54 37.7 °F 36.4 °F 29.73 in ENE 8.0 mph 15.0 mph 95% 0.00 in
21:59 37.6 °F 36.3 °F 29.73 in NE 8.0 mph 15.0 mph 95% 0.00 in
22:04 37.6 °F 36.3 °F 29.73 in NE 3.0 mph 13.0 mph 95% 0.00 in
22:09 37.6 °F 36.3 °F 29.73 in NE 12.0 mph 14.0 mph 95% 0.00 in
22:14 37.5 °F 36.2 °F 29.73 in ENE 9.0 mph 16.0 mph 95% 0.00 in
22:19 37.5 °F 35.9 °F 29.73 in NE 8.0 mph 16.0 mph 94% 0.00 in
22:24 37.4 °F 35.8 °F 29.72 in ENE 7.0 mph 14.0 mph 94% 0.00 in
22:29 37.4 °F 35.8 °F 29.72 in NE 7.0 mph 17.0 mph 94% 0.00 in
22:34 37.4 °F 35.8 °F 29.73 in NE 8.0 mph 17.0 mph 94% 0.00 in
22:39 37.3 °F 35.7 °F 29.72 in ENE 8.0 mph 13.0 mph 94% 0.00 in
22:44 37.3 °F 35.7 °F 29.73 in ENE 7.0 mph 12.0 mph 94% 0.00 in
22:49 37.3 °F 35.7 °F 29.73 in ENE 11.0 mph 12.0 mph 94% 0.00 in
22:54 37.2 °F 35.6 °F 29.73 in NE 7.0 mph 15.0 mph 94% 0.00 in
22:59 37.2 °F 35.6 °F 29.73 in ENE 7.0 mph 15.0 mph 94% 0.01 in
23:04 37.2 °F 35.6 °F 29.73 in NE 8.0 mph 14.0 mph 94% 0.01 in
23:09 37.1 °F 35.5 °F 29.73 in NNE 6.0 mph 14.0 mph 94% 0.01 in
23:14 37.2 °F 35.6 °F 29.73 in ENE 3.0 mph 12.0 mph 94% 0.01 in
23:19 37.1 °F 35.5 °F 29.73 in ENE 7.0 mph 14.0 mph 94% 0.01 in
23:24 37.1 °F 35.5 °F 29.73 in ENE 7.0 mph 11.0 mph 94% 0.01 in
23:29 37.1 °F 35.5 °F 29.73 in ENE 6.0 mph 11.0 mph 94% 0.01 in
23:34 37.1 °F 35.5 °F 29.73 in NE 3.0 mph 12.0 mph 94% 0.01 in
23:39 37.1 °F 35.5 °F 29.73 in NE 6.0 mph 12.0 mph 94% 0.01 in
23:44 37.1 °F 35.8 °F 29.74 in ENE 8.0 mph 10.0 mph 95% 0.01 in
23:49 37.1 °F 35.8 °F 29.73 in NE 4.0 mph 11.0 mph 95% 0.01 in
23:54 37.1 °F 35.8 °F 29.73 in NE 11.0 mph 13.0 mph 95% 0.01 in
23:59 37.1 °F 35.8 °F 29.73 in ENE 5.0 mph 13.0 mph 95% 0.00 in
Buffalo, New York, USA
Compliments of Weather Underground - 2.5 mb